createdAt,value
2022-07-30T00:00:24.778Z,9.15
2022-07-30T00:03:15.343Z,11.57
2022-07-30T00:05:57.311Z,13.98
2022-07-30T00:08:45.269Z,18.10
2022-07-30T00:11:29.408Z,11.82
2022-07-30T00:14:19.880Z,13.63
2022-07-30T00:17:01.338Z,13.73
2022-07-30T00:19:48.354Z,9.55
2022-07-30T00:22:29.538Z,8.93
2022-07-30T00:25:21.768Z,7.82
2022-07-30T00:28:02.198Z,7.03
2022-07-30T00:30:54.926Z,9.38
2022-07-30T00:33:38.299Z,9.85
2022-07-30T00:36:27.498Z,12.45
2022-07-30T00:39:10.455Z,9.95
2022-07-30T00:42:07.291Z,8.90
2022-07-30T00:45:04.005Z,12.48
2022-07-30T00:47:51.776Z,11.32
2022-07-30T00:50:32.179Z,6.47
2022-07-30T00:53:19.275Z,8.98
2022-07-30T00:56:01.231Z,9.25
2022-07-30T00:58:48.318Z,10.07
2022-07-30T01:01:29.184Z,11.23
2022-07-30T01:04:17.380Z,7.25
2022-07-30T01:06:58.554Z,11.40
2022-07-30T01:09:48.557Z,9.55
2022-07-30T01:12:33.284Z,9.20
2022-07-30T01:15:20.294Z,8.05
2022-07-30T01:18:04.220Z,8.63
2022-07-30T01:21:04.361Z,11.15
2022-07-30T01:23:48.499Z,7.72
2022-07-30T01:26:37.323Z,12.50
2022-07-30T01:29:20.605Z,11.52
2022-07-30T01:32:15.147Z,9.95
2022-07-30T01:34:57.187Z,11.70
2022-07-30T01:37:45.601Z,15.07
2022-07-30T01:40:28.611Z,11.27
2022-07-30T01:43:17.092Z,12.13
2022-07-30T01:46:07.410Z,15.65
2022-07-30T01:48:50.417Z,11.13
2022-07-30T01:51:39.203Z,13.23
2022-07-30T01:54:21.923Z,14.23
2022-07-30T01:57:13.169Z,14.27
2022-07-30T01:59:58.333Z,12.63
2022-07-30T02:02:57.679Z,17.05
2022-07-30T02:05:41.751Z,13.63
2022-07-30T02:08:43.816Z,13.40
2022-07-30T02:11:44.879Z,16.83
2022-07-30T02:14:38.380Z,15.27
2022-07-30T02:17:30.056Z,14.07
2022-07-30T02:20:20.216Z,14.48
2022-07-30T02:23:13.334Z,12.30
2022-07-30T02:26:04.254Z,14.13
2022-07-30T02:28:51.498Z,16.38
2022-07-30T02:31:42.252Z,13.30
2022-07-30T02:34:26.391Z,15.88
2022-07-30T02:37:21.107Z,17.10
2022-07-30T02:40:26.141Z,16.52
2022-07-30T02:43:15.629Z,17.27
2022-07-30T02:46:04.354Z,15.82
2022-07-30T02:49:05.326Z,15.57
2022-07-30T02:51:56.416Z,20.45
2022-07-30T02:54:39.282Z,16.25
2022-07-30T02:57:28.385Z,19.60
2022-07-30T03:00:11.265Z,17.92
2022-07-30T03:03:02.180Z,17.10
2022-07-30T03:05:46.533Z,19.85
2022-07-30T03:08:35.370Z,18.42
2022-07-30T03:11:18.253Z,20.92
2022-07-30T03:14:11.206Z,20.15
2022-07-30T03:16:58.460Z,23.33
2022-07-30T03:19:48.869Z,21.13
2022-07-30T03:22:35.829Z,24.40
2022-07-30T03:25:29.647Z,23.85
2022-07-30T03:28:12.260Z,25.58
2022-07-30T03:31:01.730Z,25.73
2022-07-30T03:33:46.673Z,26.02
2022-07-30T03:36:36.839Z,27.90
2022-07-30T03:39:18.870Z,26.48
2022-07-30T03:42:07.436Z,27.48
2022-07-30T03:44:57.804Z,26.95
2022-07-30T03:47:42.125Z,25.73
2022-07-30T03:50:29.327Z,25.27
2022-07-30T03:53:11.470Z,33.50
2022-07-30T03:56:28.419Z,30.27
2022-07-30T03:59:29.465Z,32.53
2022-07-30T04:02:17.353Z,31.02
2022-07-30T04:05:11.439Z,30.30
2022-07-30T04:08:01.363Z,26.35
2022-07-30T04:10:44.834Z,30.27
2022-07-30T04:13:57.359Z,28.45
2022-07-30T04:17:06.460Z,25.75
2022-07-30T04:20:00.317Z,31.92
2022-07-30T04:22:44.483Z,27.38
2022-07-30T04:25:33.114Z,33.00
2022-07-30T04:28:17.425Z,31.17
2022-07-30T04:31:05.921Z,28.58
2022-07-30T04:33:48.044Z,29.92
2022-07-30T04:36:45.282Z,28.55
2022-07-30T04:39:26.663Z,30.20
2022-07-30T04:42:16.450Z,28.70
2022-07-30T04:45:21.315Z,23.17
2022-07-30T04:48:11.311Z,27.27
2022-07-30T04:51:20.451Z,26.05
2022-07-30T04:54:16.294Z,27.63
2022-07-30T04:56:58.579Z,24.23
2022-07-30T04:59:46.321Z,25.13
2022-07-30T05:02:32.420Z,26.30
2022-07-30T05:05:23.514Z,26.20
2022-07-30T05:08:06.623Z,25.27
2022-07-30T05:10:58.875Z,21.33
2022-07-30T05:13:39.457Z,20.45
2022-07-30T05:16:31.393Z,19.63
2022-07-30T05:19:12.506Z,24.02
2022-07-30T05:22:04.679Z,22.83
2022-07-30T05:24:48.845Z,21.02
2022-07-30T05:27:41.350Z,20.55
2022-07-30T05:30:27.511Z,22.70
2022-07-30T05:33:15.785Z,24.65
2022-07-30T05:36:00.214Z,28.08
2022-07-30T05:38:57.726Z,23.38
2022-07-30T05:41:44.806Z,25.02
2022-07-30T05:44:36.347Z,24.33
2022-07-30T05:47:20.960Z,20.60
2022-07-30T05:50:10.381Z,22.60
2022-07-30T05:52:51.691Z,22.85
2022-07-30T05:56:06.743Z,24.15
2022-07-30T05:59:22.491Z,21.67
2022-07-30T06:02:15.385Z,17.35
2022-07-30T06:05:00.749Z,17.73
2022-07-30T06:07:47.375Z,16.98
2022-07-30T06:10:31.230Z,16.48
2022-07-30T06:13:20.353Z,18.85
2022-07-30T06:16:01.550Z,18.33
2022-07-30T06:18:52.399Z,19.27
2022-07-30T06:22:06.372Z,14.65
2022-07-30T06:24:58.742Z,14.32
2022-07-30T06:27:39.958Z,11.30
2022-07-30T06:30:30.591Z,12.75
2022-07-30T06:33:14.472Z,12.50
2022-07-30T06:36:03.158Z,13.63
2022-07-30T06:38:55.918Z,13.13
2022-07-30T06:42:04.565Z,10.07
2022-07-30T06:45:30.529Z,7.45
2022-07-30T06:48:24.781Z,7.55
2022-07-30T06:51:16.025Z,8.43
2022-07-30T06:53:57.166Z,8.07
2022-07-30T06:56:43.859Z,7.20
2022-07-30T06:59:31.397Z,7.07
2022-07-30T07:02:26.239Z,7.45
2022-07-30T07:05:25.409Z,8.30
2022-07-30T07:08:13.538Z,7.53
2022-07-30T07:10:58.807Z,6.95
2022-07-30T07:13:48.198Z,5.82
2022-07-30T07:16:50.277Z,3.63
2022-07-30T07:20:02.618Z,7.40
2022-07-30T07:22:58.449Z,5.75
2022-07-30T07:25:48.513Z,6.63
2022-07-30T07:28:33.352Z,5.85
2022-07-30T07:34:24.903Z,7.20
2022-07-30T07:37:16.804Z,4.05
2022-07-30T07:39:58.445Z,6.70
2022-07-30T07:43:04.417Z,5.75
2022-07-30T07:46:01.195Z,4.68
2022-07-30T07:48:51.862Z,6.30
2022-07-30T07:51:48.168Z,4.63
2022-07-30T07:54:40.343Z,4.38
2022-07-30T07:57:21.913Z,5.75
2022-07-30T08:00:12.819Z,4.57
2022-07-30T08:02:54.539Z,4.32
2022-07-30T08:05:58.118Z,4.88
2022-07-30T08:09:08.431Z,4.22
2022-07-30T08:12:09.881Z,4.70
2022-07-30T08:15:04.439Z,3.20
2022-07-30T08:18:04.003Z,2.50
2022-07-30T08:21:23.741Z,7.20
2022-07-30T08:24:14.544Z,3.05
2022-07-30T08:26:55.452Z,6.95
2022-07-30T08:29:42.625Z,3.47
2022-07-30T08:32:23.522Z,4.15
2022-07-30T08:35:15.304Z,3.63
2022-07-30T08:37:57.595Z,2.97
2022-07-30T08:40:46.759Z,4.82
2022-07-30T08:43:32.633Z,3.50
2022-07-30T08:46:25.492Z,6.57
2022-07-30T08:49:22.479Z,4.97
2022-07-30T08:52:12.622Z,2.72
2022-07-30T08:55:03.234Z,3.38
2022-07-30T08:57:56.646Z,3.63
2022-07-30T09:00:38.842Z,4.80
2022-07-30T09:03:26.572Z,4.57
2022-07-30T09:06:11.263Z,3.97
2022-07-30T09:09:01.455Z,2.70
2022-07-30T09:11:43.529Z,1.95
2022-07-30T09:14:31.584Z,4.38
2022-07-30T09:17:14.295Z,3.92
2022-07-30T09:20:10.661Z,3.55
2022-07-30T09:22:55.472Z,2.90
2022-07-30T09:25:57.078Z,5.78
2022-07-30T09:28:59.479Z,5.72
2022-07-30T09:32:06.076Z,5.45
2022-07-30T09:35:27.883Z,5.30
2022-07-30T09:38:49.099Z,2.63
2022-07-30T09:42:04.116Z,4.85
2022-07-30T09:44:58.612Z,3.97
2022-07-30T09:47:50.243Z,5.25
2022-07-30T09:50:31.682Z,2.22
2022-07-30T09:53:19.554Z,2.30
2022-07-30T09:56:02.673Z,5.38
2022-07-30T09:58:52.288Z,5.05
2022-07-30T10:01:49.746Z,4.25
2022-07-30T10:05:20.904Z,3.97
2022-07-30T10:08:09.504Z,10.82
2022-07-30T10:13:49.993Z,5.28
2022-07-30T10:16:37.905Z,3.40
2022-07-30T10:19:23.520Z,5.72
2022-07-30T10:22:48.066Z,7.03
2022-07-30T10:26:08.081Z,4.88
2022-07-30T10:28:58.537Z,4.55
2022-07-30T10:31:49.363Z,5.05
2022-07-30T10:34:42.459Z,2.58
2022-07-30T10:37:24.130Z,2.22
2022-07-30T10:40:30.690Z,5.97
2022-07-30T10:43:31.574Z,2.60
2022-07-30T10:46:57.303Z,5.05
2022-07-30T10:49:41.890Z,5.82
2022-07-30T10:52:56.577Z,3.55
2022-07-30T10:55:41.672Z,2.75
2022-07-30T10:58:29.990Z,5.63
2022-07-30T11:01:18.837Z,9.88
2022-07-30T11:04:33.629Z,3.92
2022-07-30T11:07:31.569Z,5.20
2022-07-30T11:10:43.833Z,4.30
2022-07-30T11:13:25.427Z,5.68
2022-07-30T11:16:14.339Z,2.00
2022-07-30T11:19:56.620Z,4.57
2022-07-30T11:22:51.040Z,3.42
2022-07-30T11:25:50.093Z,5.60
2022-07-30T11:28:43.957Z,3.58
2022-07-30T11:31:56.832Z,5.10
2022-07-30T11:34:51.601Z,1.98
2022-07-30T11:37:33.072Z,4.40
2022-07-30T11:40:26.478Z,3.47
2022-07-30T11:43:34.850Z,2.95
2022-07-30T11:46:30.020Z,3.58
2022-07-30T11:49:15.731Z,2.40
2022-07-30T11:52:04.140Z,3.63
2022-07-30T11:54:59.890Z,7.05
2022-07-30T11:57:49.732Z,4.18
2022-07-30T12:00:31.635Z,3.65
2022-07-30T12:03:21.583Z,6.13
2022-07-30T12:06:02.712Z,3.40
2022-07-30T12:08:58.523Z,3.53
2022-07-30T12:11:43.752Z,4.25
2022-07-30T12:14:31.817Z,4.78
2022-07-30T12:17:14.895Z,5.63
2022-07-30T12:20:04.119Z,2.45
2022-07-30T12:22:47.415Z,4.00
2022-07-30T12:25:36.352Z,3.15
2022-07-30T12:28:18.761Z,3.28
2022-07-30T12:31:11.000Z,5.63
2022-07-30T12:33:51.889Z,3.10
2022-07-30T12:36:44.252Z,3.72
2022-07-30T12:39:29.745Z,2.88
2022-07-30T12:42:27.636Z,3.63
2022-07-30T12:45:50.447Z,3.15
2022-07-30T12:48:38.670Z,4.53
2022-07-30T12:51:19.858Z,1.83
2022-07-30T12:54:22.641Z,3.53
2022-07-30T12:57:06.373Z,4.20
2022-07-30T13:00:07.381Z,3.53
2022-07-30T13:02:48.739Z,3.28
2022-07-30T13:05:58.637Z,2.95
2022-07-30T13:08:55.107Z,4.47
2022-07-30T13:11:49.668Z,3.28
2022-07-30T13:19:43.752Z,3.85
2022-07-30T13:22:32.016Z,1.52
2022-07-30T13:25:13.382Z,5.32
2022-07-30T13:28:00.867Z,3.00
2022-07-30T13:30:41.760Z,5.15
2022-07-30T13:33:28.906Z,2.25
2022-07-30T13:36:09.788Z,4.90
2022-07-30T13:38:57.911Z,3.78
2022-07-30T13:41:41.614Z,4.93
2022-07-30T13:44:28.940Z,2.95
2022-07-30T13:47:11.174Z,2.65
2022-07-30T13:49:58.912Z,2.78
2022-07-30T13:52:40.519Z,4.82
2022-07-30T13:55:29.919Z,2.70
2022-07-30T13:58:11.247Z,3.28
2022-07-30T14:00:58.113Z,3.90
2022-07-30T14:03:39.217Z,3.90
2022-07-30T14:06:26.914Z,3.53
2022-07-30T14:09:08.148Z,2.35
2022-07-30T14:11:55.891Z,1.48
2022-07-30T14:14:39.276Z,2.45
2022-07-30T14:17:33.808Z,2.72
2022-07-30T14:20:20.781Z,2.22
2022-07-30T14:23:01.919Z,3.28
2022-07-30T14:25:51.556Z,2.67
2022-07-30T14:28:33.366Z,3.45
2022-07-30T14:31:20.569Z,4.93
2022-07-30T14:34:01.919Z,3.42
2022-07-30T14:36:51.642Z,3.92
2022-07-30T14:39:33.104Z,2.45
2022-07-30T14:42:20.577Z,3.85
2022-07-30T14:45:02.005Z,2.00
2022-07-30T14:47:51.961Z,2.00
2022-07-30T14:50:39.414Z,3.00
2022-07-30T14:53:39.867Z,1.30
2022-07-30T14:56:22.253Z,1.52
2022-07-30T14:59:11.346Z,1.35
2022-07-30T15:01:53.129Z,3.45
2022-07-30T15:04:40.805Z,3.00
2022-07-30T15:07:22.055Z,1.98
2022-07-30T15:10:10.834Z,2.80
2022-07-30T15:12:56.246Z,2.15
2022-07-30T15:15:44.541Z,3.92
2022-07-30T15:18:39.808Z,1.38
2022-07-30T15:21:29.266Z,2.20
2022-07-30T15:24:10.816Z,4.60
2022-07-30T15:26:57.943Z,1.88
2022-07-30T15:29:38.951Z,2.22
2022-07-30T15:32:26.827Z,1.67
2022-07-30T15:35:13.848Z,3.70
2022-07-30T15:38:01.301Z,3.17
2022-07-30T15:40:42.409Z,2.50
2022-07-30T15:43:30.229Z,2.40
2022-07-30T15:46:15.003Z,2.17
2022-07-30T15:49:04.960Z,4.28
2022-07-30T15:51:48.988Z,2.30
2022-07-30T15:54:36.961Z,1.63
2022-07-30T15:57:19.337Z,2.28
2022-07-30T16:00:06.245Z,2.92
2022-07-30T16:02:50.542Z,3.83
2022-07-30T16:05:52.555Z,2.78
2022-07-30T16:08:41.971Z,1.20
2022-07-30T16:11:22.873Z,3.83
2022-07-30T16:14:10.999Z,4.07
2022-07-30T16:16:51.874Z,1.20
2022-07-30T16:19:47.879Z,2.17
2022-07-30T16:22:35.258Z,1.23
2022-07-30T16:25:17.095Z,1.92
2022-07-30T16:28:06.055Z,3.38
2022-07-30T16:30:51.212Z,6.05
2022-07-30T16:33:40.873Z,1.33
2022-07-30T16:36:21.983Z,1.83
2022-07-30T16:39:10.889Z,1.65
2022-07-30T16:41:52.896Z,4.65
2022-07-30T16:44:42.236Z,4.15
2022-07-30T16:47:23.338Z,5.57
2022-07-30T16:50:10.724Z,5.20
2022-07-30T16:52:52.537Z,2.75
2022-07-30T16:55:39.882Z,2.22
2022-07-30T16:58:21.363Z,1.02
2022-07-30T17:01:14.925Z,4.57
2022-07-30T17:03:56.813Z,1.08
2022-07-30T17:06:46.894Z,0.90
2022-07-30T17:09:28.037Z,1.67
2022-07-30T17:12:23.943Z,1.42
2022-07-30T17:15:07.470Z,0.98
2022-07-30T17:17:56.653Z,1.98
2022-07-30T17:20:45.010Z,4.25
2022-07-30T17:23:26.888Z,1.25
2022-07-30T17:26:14.668Z,2.15
2022-07-30T17:28:56.668Z,2.08
2022-07-30T17:31:45.046Z,3.45
2022-07-30T17:34:28.909Z,0.80
2022-07-30T17:37:18.429Z,0.45
2022-07-30T17:40:26.446Z,0.57
2022-07-30T17:43:14.021Z,0.60
2022-07-30T17:45:54.922Z,2.33
2022-07-30T17:48:42.039Z,2.15
2022-07-30T17:51:24.692Z,2.60
2022-07-30T17:54:14.043Z,0.50
2022-07-30T17:56:55.937Z,2.50
2022-07-30T17:59:43.849Z,2.45
2022-07-30T18:02:27.473Z,2.90
2022-07-30T18:05:18.103Z,1.45
2022-07-30T18:07:59.291Z,4.28
2022-07-30T18:10:47.643Z,2.15
2022-07-30T18:13:29.065Z,1.58
2022-07-30T18:16:19.067Z,4.78
2022-07-30T18:19:22.772Z,0.85
2022-07-30T18:22:15.267Z,2.42
2022-07-30T18:24:56.336Z,3.40
2022-07-30T18:27:44.071Z,3.28
2022-07-30T18:30:25.769Z,6.55
2022-07-30T18:33:16.297Z,4.85
2022-07-30T18:35:56.951Z,4.32
2022-07-30T18:38:49.705Z,1.42
2022-07-30T18:41:33.956Z,3.60
2022-07-30T18:44:25.080Z,3.72
2022-07-30T18:47:06.338Z,1.17
2022-07-30T18:49:56.096Z,3.75
2022-07-30T18:52:37.975Z,3.90
2022-07-30T18:55:25.334Z,2.15
2022-07-30T18:58:05.983Z,2.58
2022-07-30T19:00:54.172Z,2.92
2022-07-30T19:03:35.382Z,3.85
2022-07-30T19:06:23.450Z,1.00
2022-07-30T19:09:05.385Z,1.38
2022-07-30T19:11:53.202Z,2.00
2022-07-30T19:14:33.975Z,1.83
2022-07-30T19:17:22.622Z,2.08
2022-07-30T19:20:31.739Z,2.83
2022-07-30T19:23:16.499Z,2.22
2022-07-30T19:26:05.191Z,2.03
2022-07-30T19:28:46.563Z,1.33
2022-07-30T19:31:34.351Z,1.42
2022-07-30T19:34:15.116Z,1.08
2022-07-30T19:37:03.875Z,2.10
2022-07-30T19:40:05.624Z,4.75
2022-07-30T19:45:58.594Z,2.25
2022-07-30T19:48:48.423Z,0.50
2022-07-30T19:52:07.282Z,1.80
2022-07-30T19:54:37.992Z,0.98
2022-07-30T20:00:29.003Z,0.85
2022-07-30T20:03:14.618Z,2.25
2022-07-30T20:06:03.120Z,1.30
2022-07-30T20:08:46.201Z,0.63
2022-07-30T20:11:36.607Z,2.63
2022-07-30T20:14:17.730Z,2.63
2022-07-30T20:17:05.467Z,2.40
2022-07-30T20:20:02.043Z,3.28
2022-07-30T20:22:52.111Z,0.45
2022-07-30T20:25:37.355Z,2.22
2022-07-30T20:28:25.992Z,2.42
2022-07-30T20:31:07.171Z,4.00
2022-07-30T20:33:55.796Z,1.67
2022-07-30T20:36:37.600Z,1.35
2022-07-30T20:39:26.046Z,3.15
2022-07-30T20:42:14.033Z,5.07
2022-07-30T20:45:04.763Z,3.00
2022-07-30T20:47:52.324Z,3.03
2022-07-30T20:50:40.782Z,4.13
2022-07-30T20:53:23.166Z,2.80
2022-07-30T20:56:11.026Z,3.17
2022-07-30T20:58:54.807Z,4.85
2022-07-30T21:01:44.582Z,3.42
2022-07-30T21:04:25.860Z,2.35
2022-07-30T21:07:20.569Z,3.38
2022-07-30T21:10:02.899Z,4.10
2022-07-30T21:12:53.037Z,3.17
2022-07-30T21:15:45.601Z,2.30
2022-07-30T21:18:53.348Z,3.20
2022-07-30T21:21:48.158Z,3.05
2022-07-30T21:24:31.028Z,2.83
2022-07-30T21:27:20.567Z,3.13
2022-07-30T21:30:01.807Z,2.10
2022-07-30T21:32:50.588Z,3.58
2022-07-30T21:35:32.475Z,3.83
2022-07-30T21:38:20.164Z,2.95
2022-07-30T21:41:04.804Z,5.68
2022-07-30T21:44:00.117Z,3.90
2022-07-30T21:46:41.817Z,4.63
2022-07-30T21:49:29.243Z,4.43
2022-07-30T21:52:13.437Z,4.05
2022-07-30T21:55:04.836Z,5.00
2022-07-30T21:57:46.101Z,4.65
2022-07-30T22:00:55.062Z,3.92
2022-07-30T22:04:04.311Z,4.47
2022-07-30T22:06:49.359Z,4.25
2022-07-30T22:09:34.192Z,3.85
2022-07-30T22:12:21.383Z,4.95
2022-07-30T22:15:08.061Z,5.10
2022-07-30T22:17:58.655Z,3.45
2022-07-30T22:20:52.081Z,5.47
2022-07-30T22:23:33.192Z,4.63
2022-07-30T22:26:22.218Z,4.22
2022-07-30T22:29:09.712Z,3.97
2022-07-30T22:31:59.086Z,5.25
2022-07-30T22:34:40.174Z,5.10
2022-07-30T22:37:34.043Z,4.53
2022-07-30T22:40:16.604Z,4.60
2022-07-30T22:43:07.625Z,4.90
2022-07-30T22:45:50.158Z,3.78
2022-07-30T22:48:40.230Z,5.07
2022-07-30T22:51:21.412Z,3.83
2022-07-30T22:54:13.336Z,4.13
2022-07-30T22:56:54.332Z,4.25
2022-07-30T22:59:58.682Z,4.15
2022-07-30T23:02:41.276Z,3.03
2022-07-30T23:05:30.129Z,3.70
2022-07-30T23:08:16.718Z,4.97
2022-07-30T23:11:20.002Z,5.50
2022-07-30T23:12:15.501Z,0.70
2022-07-30T23:12:16.670Z,1.40
2022-07-30T23:14:02.404Z,4.55
2022-07-30T23:16:51.260Z,2.95
2022-07-30T23:19:46.118Z,5.95
2022-07-30T23:22:33.516Z,5.72
2022-07-30T23:25:16.231Z,3.75
2022-07-30T23:28:04.092Z,4.60
2022-07-30T23:30:45.255Z,5.47
2022-07-30T23:33:32.120Z,3.40
2022-07-30T23:36:16.066Z,4.40
2022-07-30T23:39:06.427Z,6.03
2022-07-30T23:41:47.250Z,5.32
2022-07-30T23:44:37.175Z,5.43
2022-07-30T23:47:19.781Z,4.40
2022-07-30T23:50:27.628Z,6.05
2022-07-30T23:53:10.232Z,4.57
2022-07-30T23:55:59.465Z,7.70
2022-07-30T23:58:42.431Z,4.75
